Time;durP1;ratioP1;P1;durP2;ratioP2;P2;SDS_P1;SDS_P2;PMS_P1;PMS_P2;Temp;Humidity;BMP_temperature;BMP_pressure;BME280_temperature;BME280_humidity;BME280_pressure;Samples;Min_cycle;Max_cycle;Signal;HPM_P1;HPM_P2
2021/07/25 00:00:11;;;;;;;16.70;9.50;;;19.10;83.50;;;;;;4965245;28;20031;-65
2021/07/25 00:02:37;;;;;;;20.25;9.93;;;19.10;83.70;;;;;;4966033;28;20041;-65
2021/07/25 00:05:05;;;;;;;19.00;9.60;;;19.10;83.70;;;;;;4963097;28;20406;-63
2021/07/25 00:07:31;;;;;;;17.90;10.35;;;19.10;83.80;;;;;;4963125;28;20130;-65
2021/07/25 00:09:57;;;;;;;15.60;10.95;;;19.10;83.80;;;;;;4967759;28;20109;-65
2021/07/25 00:12:23;;;;;;;20.48;10.80;;;19.10;83.90;;;;;;4964332;28;20501;-63
2021/07/25 00:14:49;;;;;;;15.93;11.27;;;19.10;84.00;;;;;;4964456;28;20049;-65
2021/07/25 00:17:14;;;;;;;19.33;11.90;;;19.10;84.20;;;;;;4965288;28;20093;-63
2021/07/25 00:19:40;;;;;;;19.30;11.73;;;19.10;84.40;;;;;;4964321;28;20023;-64
2021/07/25 00:22:07;;;;;;;20.40;11.70;;;19.10;84.50;;;;;;4966058;28;20031;-65
2021/07/25 00:24:36;;;;;;;16.10;11.18;;;19.10;84.60;;;;;;4964169;28;20033;-65
2021/07/25 00:27:03;;;;;;;15.43;10.82;;;19.10;84.60;;;;;;4964255;28;20057;-65
2021/07/25 00:29:32;;;;;;;13.23;10.30;;;19.00;84.70;;;;;;4964205;28;20405;-64
2021/07/25 00:32:08;;;;;;;17.55;9.85;;;19.00;84.90;;;;;;4962491;28;20035;-64
2021/07/25 00:34:34;;;;;;;15.27;10.77;;;19.10;85.90;;;;;;4963345;28;20065;-65
2021/07/25 00:37:01;;;;;;;15.18;10.35;;;19.10;86.10;;;;;;4966582;28;20027;-64
2021/07/25 00:39:27;;;;;;;13.35;10.65;;;19.10;85.20;;;;;;4966969;28;20026;-65
2021/07/25 00:41:53;;;;;;;15.75;10.48;;;19.20;85.20;;;;;;4966408;28;20039;-64
2021/07/25 00:44:19;;;;;;;15.05;10.95;;;19.20;85.00;;;;;;4967774;28;20069;-65
2021/07/25 00:47:03;;;;;;;15.00;10.80;;;19.20;85.00;;;;;;4962472;28;20060;-65
2021/07/25 00:49:29;;;;;;;17.08;11.05;;;19.20;85.90;;;;;;4965952;28;20054;-65
2021/07/25 00:51:55;;;;;;;12.95;9.48;;;19.20;86.00;;;;;;4962500;28;20035;-65
2021/07/25 00:54:21;;;;;;;18.92;10.43;;;19.20;85.30;;;;;;4966536;28;20577;-65
2021/07/25 00:56:47;;;;;;;13.77;10.10;;;19.30;85.30;;;;;;4965550;28;20034;-65
2021/07/25 00:59:13;;;;;;;15.82;10.35;;;19.30;85.20;;;;;;4965886;28;20049;-65
2021/07/25 01:01:39;;;;;;;12.65;10.65;;;19.40;85.10;;;;;;4962893;28;20515;-65
2021/07/25 01:04:35;;;;;;;17.02;10.60;;;19.40;85.00;;;;;;4963352;28;20159;-65
2021/07/25 01:07:20;;;;;;;18.67;11.02;;;19.40;85.30;;;;;;4963837;28;20035;-65
2021/07/25 01:10:03;;;;;;;;;;;19.40;84.70;;;;;;4968051;28;20061;-65
2021/07/25 01:12:36;;;;;;;15.25;9.55;;;19.50;84.90;;;;;;4963817;28;20009;-65
2021/07/25 01:15:02;;;;;;;17.45;9.80;;;19.50;84.30;;;;;;4964670;28;20039;-65
2021/07/25 01:17:31;;;;;;;12.65;9.48;;;19.50;84.30;;;;;;4963109;28;20603;-64
2021/07/25 01:20:02;;;;;;;17.65;10.55;;;19.50;84.60;;;;;;4969843;28;20093;-64
2021/07/25 01:22:30;;;;;;;19.70;10.43;;;19.50;85.30;;;;;;4967711;28;20244;-64
2021/07/25 01:24:56;;;;;;;13.55;10.10;;;19.60;84.60;;;;;;4969811;28;20023;-64
2021/07/25 01:27:33;;;;;;;15.43;10.75;;;19.50;84.40;;;;;;4967697;28;20043;-64
2021/07/25 01:30:03;;;;;;;16.35;9.88;;;19.60;84.60;;;;;;4965968;28;20552;-64
2021/07/25 01:32:29;;;;;;;17.77;9.98;;;19.50;84.30;;;;;;4969778;28;20110;-65
2021/07/25 01:34:58;;;;;;;13.10;9.98;;;19.60;84.20;;;;;;4972963;28;20058;-64
2021/07/25 01:37:26;;;;;;;14.45;8.90;;;19.50;84.40;;;;;;4966404;28;20062;-64
2021/07/25 01:39:52;;;;;;;10.30;8.85;;;19.50;84.30;;;;;;4970824;28;20035;-64
2021/07/25 01:42:31;;;;;;;14.48;8.57;;;19.50;84.30;;;;;;4969629;28;20120;-65
2021/07/25 01:44:58;;;;;;;17.42;8.77;;;19.50;84.80;;;;;;4968035;28;20517;-64
2021/07/25 01:47:24;;;;;;;11.02;8.15;;;19.40;84.30;;;;;;4967366;28;20085;-64
2021/07/25 01:49:50;;;;;;;9.90;7.85;;;19.40;84.40;;;;;;4967296;28;20453;-64
2021/07/25 01:52:15;;;;;;;12.18;8.63;;;19.30;84.50;;;;;;4965979;28;20130;-64
2021/07/25 01:54:43;;;;;;;11.23;8.52;;;19.30;84.60;;;;;;4968930;28;20522;-64
2021/07/25 01:57:08;;;;;;;9.60;7.88;;;19.20;84.70;;;;;;4967373;28;20546;-64
2021/07/25 01:59:34;;;;;;;11.55;8.13;;;19.20;84.80;;;;;;4969434;28;20115;-64
2021/07/25 02:02:00;;;;;;;11.82;7.63;;;19.20;85.10;;;;;;4965747;28;20027;-64
2021/07/25 02:04:25;;;;;;;10.02;7.38;;;19.20;85.30;;;;;;4968480;28;20450;-65
2021/07/25 02:06:51;;;;;;;10.63;7.72;;;19.10;85.30;;;;;;4968907;28;20034;-64
2021/07/25 02:09:16;;;;;;;12.23;8.38;;;19.10;85.40;;;;;;4966913;28;20593;-65
2021/07/25 02:11:42;;;;;;;11.02;8.27;;;19.10;85.50;;;;;;4966335;28;20034;-64
2021/07/25 02:14:08;;;;;;;10.02;8.38;;;19.10;85.60;;;;;;4967827;28;20038;-64
2021/07/25 02:16:35;;;;;;;14.05;8.63;;;19.10;85.60;;;;;;4965914;28;20036;-64
2021/07/25 02:19:00;;;;;;;11.27;7.95;;;19.20;85.50;;;;;;4968215;28;20039;-65
2021/07/25 02:21:26;;;;;;;11.45;8.38;;;19.20;85.50;;;;;;4970157;28;20592;-65
2021/07/25 02:23:51;;;;;;;10.68;8.20;;;19.20;85.50;;;;;;4968528;28;20114;-64
2021/07/25 02:26:17;;;;;;;9.40;7.63;;;19.10;85.30;;;;;;4968933;28;20154;-65
2021/07/25 02:28:43;;;;;;;11.52;8.38;;;19.20;85.50;;;;;;4969266;28;20045;-64
2021/07/25 02:31:09;;;;;;;11.50;8.15;;;19.10;85.50;;;;;;4966343;28;20066;-65
2021/07/25 02:33:35;;;;;;;12.35;7.93;;;19.10;85.50;;;;;;4970928;28;20073;-64
2021/07/25 02:36:01;;;;;;;11.23;8.02;;;19.10;86.40;;;;;;4967127;28;20057;-65
2021/07/25 02:38:26;;;;;;;10.48;7.68;;;19.10;85.70;;;;;;4967318;28;20053;-65
2021/07/25 02:40:52;;;;;;;9.30;7.78;;;19.10;85.70;;;;;;4969218;28;20038;-65
2021/07/25 02:43:17;;;;;;;9.57;7.72;;;19.10;85.70;;;;;;4968306;28;20115;-65
2021/07/25 02:45:43;;;;;;;9.85;7.35;;;19.10;85.80;;;;;;4969114;28;20039;-65
2021/07/25 02:48:09;;;;;;;11.13;7.32;;;19.10;85.80;;;;;;4968376;28;20933;-65
2021/07/25 02:50:34;;;;;;;10.48;7.25;;;19.10;85.90;;;;;;4966262;28;20035;-64
2021/07/25 02:53:00;;;;;;;11.43;8.00;;;19.10;85.90;;;;;;4968521;28;21180;-64
2021/07/25 02:55:26;;;;;;;10.35;7.75;;;19.20;86.00;;;;;;4964821;28;20045;-64
2021/07/25 02:57:52;;;;;;;11.68;8.27;;;19.20;86.00;;;;;;4965226;28;20045;-64
2021/07/25 03:00:18;;;;;;;12.15;8.65;;;19.20;85.90;;;;;;4967746;28;20038;-64
2021/07/25 03:02:43;;;;;;;11.25;8.38;;;19.20;86.00;;;;;;4969040;28;20030;-64
2021/07/25 03:05:09;;;;;;;15.30;8.82;;;19.20;85.80;;;;;;4967418;28;20031;-64
2021/07/25 03:07:35;;;;;;;10.57;8.32;;;19.20;85.70;;;;;;4969707;28;20052;-64
2021/07/25 03:10:01;;;;;;;11.50;8.30;;;19.20;85.90;;;;;;4964769;28;20569;-64
2021/07/25 03:12:27;;;;;;;14.80;8.02;;;19.20;86.80;;;;;;4966852;28;20054;-64
2021/07/25 03:14:52;;;;;;;10.00;7.93;;;19.20;85.90;;;;;;4968470;28;20046;-64
2021/07/25 03:17:18;;;;;;;10.18;7.80;;;19.20;85.90;;;;;;4968969;28;20159;-64
2021/07/25 03:19:44;;;;;;;13.40;7.97;;;19.30;85.90;;;;;;4966468;28;20023;-64
2021/07/25 03:22:10;;;;;;;10.55;7.47;;;19.30;85.70;;;;;;4968130;28;20031;-64
2021/07/25 03:24:36;;;;;;;8.73;7.53;;;19.30;85.70;;;;;;4964813;28;20122;-64
2021/07/25 03:27:02;;;;;;;7.45;6.75;;;19.30;85.50;;;;;;4965617;28;20141;-64
2021/07/25 03:29:28;;;;;;;9.95;7.15;;;19.40;85.50;;;;;;4968694;28;20050;-64
2021/07/25 03:31:53;;;;;;;10.40;7.13;;;19.30;85.20;;;;;;4965869;28;20052;-64
2021/07/25 03:34:20;;;;;;;11.73;7.68;;;19.40;85.30;;;;;;4966910;28;20159;-64
2021/07/25 03:36:45;;;;;;;10.10;7.80;;;19.40;85.30;;;;;;4967139;28;20049;-64
2021/07/25 03:39:15;;;;;;;7.90;7.03;;;19.30;85.20;;;;;;4969772;28;20039;-64
2021/07/25 03:41:40;;;;;;;9.13;6.57;;;19.30;85.50;;;;;;4964614;28;20732;-64
2021/07/25 03:44:07;;;;;;;8.70;7.15;;;19.30;85.50;;;;;;4966014;28;20118;-64
2021/07/25 03:46:33;;;;;;;9.02;6.68;;;19.30;85.70;;;;;;4965343;28;20493;-64
2021/07/25 03:48:59;;;;;;;9.48;6.28;;;19.30;85.70;;;;;;4966661;28;20078;-64
2021/07/25 03:51:25;;;;;;;7.53;6.22;;;19.30;85.70;;;;;;4964476;28;20107;-64
2021/07/25 03:53:50;;;;;;;13.00;9.68;;;19.30;85.50;;;;;;4970264;28;20034;-65
2021/07/25 03:56:19;;;;;;;14.40;8.98;;;19.40;85.40;;;;;;4966289;28;20449;-64
2021/07/25 03:58:45;;;;;;;19.63;16.00;;;19.40;85.30;;;;;;4966740;28;20047;-64
2021/07/25 04:01:11;;;;;;;11.32;9.60;;;19.40;85.20;;;;;;4966429;28;20046;-64
2021/07/25 04:03:37;;;;;;;10.20;7.03;;;19.40;85.20;;;;;;4963047;28;20045;-64
2021/07/25 04:06:03;;;;;;;9.05;6.93;;;19.40;85.10;;;;;;4966725;28;20043;-64
2021/07/25 04:08:28;;;;;;;7.82;6.78;;;19.40;85.00;;;;;;4967005;28;20845;-64
2021/07/25 04:10:54;;;;;;;7.47;6.65;;;19.50;84.90;;;;;;4966154;28;20081;-64
2021/07/25 04:13:19;;;;;;;11.15;6.60;;;19.40;84.80;;;;;;4964690;28;20026;-64
2021/07/25 04:15:47;;;;;;;10.65;6.72;;;19.50;84.80;;;;;;4966665;28;20046;-64
2021/07/25 04:18:13;;;;;;;7.22;6.47;;;19.50;84.80;;;;;;4966334;28;20371;-64
2021/07/25 04:20:39;;;;;;;8.60;7.13;;;19.40;84.60;;;;;;4965385;28;20089;-64
2021/07/25 04:23:05;;;;;;;7.57;6.78;;;19.40;84.30;;;;;;4966990;28;20587;-64
2021/07/25 04:25:31;;;;;;;7.63;6.57;;;19.40;84.40;;;;;;4965150;28;20066;-64
2021/07/25 04:28:01;;;;;;;9.30;6.85;;;19.40;84.50;;;;;;4965461;28;20047;-64
2021/07/25 04:30:28;;;;;;;8.70;6.30;;;19.40;84.50;;;;;;4965335;28;20045;-64
2021/07/25 04:32:56;;;;;;;7.50;6.72;;;19.40;84.60;;;;;;4965654;28;20043;-64
2021/07/25 04:35:22;;;;;;;8.90;7.10;;;19.30;84.60;;;;;;4965034;28;20643;-64
2021/07/25 04:37:49;;;;;;;7.00;6.15;;;19.30;84.70;;;;;;4968066;28;20055;-64
2021/07/25 04:40:16;;;;;;;7.60;6.90;;;19.20;85.00;;;;;;4968894;28;20055;-64
2021/07/25 04:42:46;;;;;;;8.25;7.05;;;19.20;85.20;;;;;;4965018;28;20068;-64
2021/07/25 04:45:17;;;;;;;11.93;9.15;;;19.20;85.20;;;;;;4963342;28;20034;-64
2021/07/25 04:48:18;;;;;;;8.65;7.22;;;19.20;85.30;;;;;;4963033;28;20035;-64
2021/07/25 04:50:52;;;;;;;8.30;7.07;;;19.20;85.90;;;;;;4971251;28;20039;-64
2021/07/25 04:53:25;;;;;;;7.55;6.82;;;19.20;85.70;;;;;;4968052;28;20081;-64
2021/07/25 04:56:02;;;;;;;8.80;7.25;;;19.20;85.70;;;;;;4967743;28;20056;-64
2021/07/25 04:58:44;;;;;;;8.25;6.70;;;19.20;86.00;;;;;;4964590;28;20035;-64
2021/07/25 05:01:15;;;;;;;10.20;7.00;;;19.20;85.90;;;;;;4965152;28;20027;-64
2021/07/25 05:03:41;;;;;;;9.90;7.28;;;19.20;85.80;;;;;;4965308;28;20039;-64
2021/07/25 05:06:12;;;;;;;8.57;7.28;;;19.20;85.70;;;;;;4966427;28;20031;-64
2021/07/25 05:08:39;;;;;;;8.05;7.25;;;19.20;86.00;;;;;;4966272;28;20066;-64
2021/07/25 05:11:27;;;;;;;11.68;9.35;;;19.20;85.90;;;;;;4967105;28;20050;-64
2021/07/25 05:13:56;;;;;;;10.07;7.70;;;19.30;86.40;;;;;;4963085;28;20038;-64
2021/07/25 05:16:39;;;;;;;9.18;7.53;;;19.30;86.00;;;;;;4961542;28;20054;-63
2021/07/25 05:19:16;;;;;;;9.00;7.63;;;19.30;86.30;;;;;;4965834;28;20580;-65
2021/07/25 05:21:47;;;;;;;9.35;7.85;;;19.40;86.20;;;;;;4964349;28;20336;-65
2021/07/25 05:24:14;;;;;;;8.50;7.63;;;19.40;85.90;;;;;;4963945;28;20042;-65
2021/07/25 05:26:43;;;;;;;9.35;7.75;;;19.40;85.80;;;;;;4965807;28;20575;-64
2021/07/25 05:29:10;;;;;;;9.02;7.93;;;19.40;85.90;;;;;;4965045;28;20090;-64
2021/07/25 05:31:36;;;;;;;9.20;7.70;;;19.40;85.90;;;;;;4961836;28;20035;-64
2021/07/25 05:34:02;;;;;;;8.40;7.50;;;19.50;86.00;;;;;;4960796;28;20045;-64
2021/07/25 05:36:29;;;;;;;8.48;7.57;;;19.50;85.90;;;;;;4965237;28;20038;-64
2021/07/25 05:38:54;;;;;;;10.18;8.10;;;19.50;85.90;;;;;;4962420;28;20050;-64
2021/07/25 05:41:20;;;;;;;8.90;7.28;;;19.50;85.70;;;;;;4963612;28;20031;-64
2021/07/25 05:43:46;;;;;;;7.85;7.05;;;19.60;85.90;;;;;;4963643;28;20031;-64
2021/07/25 05:46:12;;;;;;;8.75;7.70;;;19.60;86.60;;;;;;4964917;28;20038;-64
2021/07/25 05:48:38;;;;;;;8.18;7.38;;;19.60;86.00;;;;;;4961826;28;20031;-64
2021/07/25 05:51:03;;;;;;;10.80;6.75;;;19.60;85.90;;;;;;4966995;28;20544;-64
2021/07/25 05:53:32;;;;;;;10.18;6.45;;;19.60;85.90;;;;;;4962018;28;20123;-64
2021/07/25 05:55:58;;;;;;;6.93;6.22;;;19.60;86.00;;;;;;4965937;28;20078;-64
2021/07/25 05:58:24;;;;;;;8.02;6.95;;;19.60;85.80;;;;;;4965734;28;20134;-63
2021/07/25 06:00:51;;;;;;;9.82;7.18;;;19.70;85.80;;;;;;4964017;28;20110;-63
2021/07/25 06:03:17;;;;;;;10.15;6.53;;;19.70;85.60;;;;;;4956781;28;20070;-64
2021/07/25 06:05:42;;;;;;;6.63;5.93;;;19.70;85.40;;;;;;4966558;28;20589;-64
2021/07/25 06:08:08;;;;;;;7.50;6.22;;;19.70;85.20;;;;;;4967708;28;20042;-64
2021/07/25 06:10:39;;;;;;;8.93;5.90;;;19.70;85.20;;;;;;4964041;28;20426;-64
2021/07/25 06:13:05;;;;;;;7.13;6.43;;;19.70;85.30;;;;;;4964240;28;20698;-64
2021/07/25 06:15:32;;;;;;;8.63;6.38;;;19.70;85.30;;;;;;4966029;28;20047;-64
2021/07/25 06:18:01;;;;;;;8.68;6.20;;;19.70;85.40;;;;;;4964718;28;20030;-64
2021/07/25 06:20:28;;;;;;;10.52;6.90;;;19.70;85.40;;;;;;4964309;28;20063;-64
2021/07/25 06:22:55;;;;;;;6.90;6.20;;;19.70;85.40;;;;;;4970030;28;20145;-65
2021/07/25 06:25:29;;;;;;;9.77;6.35;;;19.60;85.30;;;;;;4976322;28;20122;-64
2021/07/25 06:27:57;;;;;;;10.95;6.43;;;19.60;85.50;;;;;;4965066;28;20087;-64
2021/07/25 06:30:24;;;;;;;7.95;6.55;;;19.60;85.70;;;;;;4964749;28;20045;-63
2021/07/25 06:32:59;;;;;;;7.65;6.72;;;19.60;85.80;;;;;;4964668;28;20065;-64
2021/07/25 06:35:36;;;;;;;7.95;6.85;;;19.60;86.20;;;;;;4967958;28;20042;-65
2021/07/25 06:38:07;;;;;;;8.98;6.63;;;19.60;86.50;;;;;;4967890;28;20027;-64
2021/07/25 06:40:34;;;;;;;8.43;6.68;;;19.60;86.60;;;;;;4967803;28;20039;-64
2021/07/25 06:43:00;;;;;;;10.77;6.38;;;19.60;86.60;;;;;;4968794;28;20031;-64
2021/07/25 06:45:27;;;;;;;8.93;6.60;;;19.60;86.50;;;;;;4964014;28;20039;-64
2021/07/25 06:47:53;;;;;;;8.13;6.82;;;19.60;86.60;;;;;;4965674;28;20046;-64
2021/07/25 06:50:25;;;;;;;6.40;5.80;;;19.60;87.40;;;;;;4966494;28;20789;-64
2021/07/25 06:52:52;;;;;;;8.18;6.65;;;19.70;86.70;;;;;;4970537;28;20042;-64
2021/07/25 06:55:19;;;;;;;7.15;5.80;;;19.70;86.40;;;;;;4968445;28;20884;-64
2021/07/25 06:57:45;;;;;;;7.22;6.53;;;19.70;86.30;;;;;;4970692;28;20034;-64
2021/07/25 07:00:11;;;;;;;8.45;6.45;;;19.70;86.40;;;;;;4965035;28;20046;-64
2021/07/25 07:03:03;;;;;;;7.80;6.38;;;19.80;86.00;;;;;;4964687;28;20027;-64
2021/07/25 07:05:33;;;;;;;8.07;5.93;;;19.80;86.70;;;;;;4967118;28;20059;-64
2021/07/25 07:08:01;;;;;;;5.85;5.25;;;19.80;86.30;;;;;;4968160;28;20134;-64
2021/07/25 07:10:30;;;;;;;8.10;5.85;;;19.90;86.60;;;;;;4966214;28;20065;-64
2021/07/25 07:12:57;;;;;;;6.90;5.53;;;19.90;86.60;;;;;;4966110;28;20698;-64
2021/07/25 07:15:24;;;;;;;6.45;5.43;;;20.00;86.10;;;;;;4964372;28;20790;-64
2021/07/25 07:17:52;;;;;;;8.25;5.35;;;20.10;86.00;;;;;;4962083;28;20042;-65
2021/07/25 07:20:18;;;;;;;5.80;5.10;;;20.10;85.70;;;;;;4951631;28;20033;-64
2021/07/25 07:23:02;;;;;;;8.32;4.90;;;20.20;85.80;;;;;;4951245;28;20063;-65
2021/07/25 07:25:30;;;;;;;7.32;4.82;;;20.30;85.20;;;;;;4956383;28;20157;-64
2021/07/25 07:27:56;;;;;;;6.90;5.35;;;20.30;85.50;;;;;;4955158;28;20159;-65
2021/07/25 07:30:22;;;;;;;6.30;4.22;;;20.40;84.90;;;;;;4956348;28;20580;-62
2021/07/25 07:32:48;;;;;;;5.68;4.95;;;20.50;84.80;;;;;;4951852;28;20042;-64
2021/07/25 07:35:14;;;;;;;5.30;4.35;;;20.50;84.90;;;;;;4953336;28;20125;-65
2021/07/25 07:37:39;;;;;;;5.20;4.70;;;20.60;84.80;;;;;;4956249;28;20039;-64
2021/07/25 07:40:06;;;;;;;5.97;4.40;;;20.60;84.40;;;;;;4953310;28;20027;-65
2021/07/25 07:42:31;;;;;;;5.55;4.82;;;20.70;84.60;;;;;;4954647;28;20125;-65
2021/07/25 07:44:57;;;;;;;5.47;4.55;;;20.70;84.60;;;;;;4966969;28;20046;-64
2021/07/25 07:47:23;;;;;;;7.53;4.97;;;20.80;84.30;;;;;;4954677;28;20068;-65
2021/07/25 07:49:50;;;;;;;6.50;4.90;;;20.80;84.30;;;;;;4956679;28;20038;-65
2021/07/25 07:52:15;;;;;;;5.15;4.65;;;20.90;84.30;;;;;;4954199;28;20648;-65
2021/07/25 07:54:41;;;;;;;5.82;4.57;;;20.90;84.60;;;;;;4953785;28;20050;-65
2021/07/25 07:57:07;;;;;;;4.95;4.00;;;21.00;84.30;;;;;;4960931;28;20409;-65
2021/07/25 07:59:33;;;;;;;5.70;3.92;;;21.10;84.20;;;;;;4953169;28;20050;-65
2021/07/25 08:01:59;;;;;;;4.82;3.80;;;21.20;83.80;;;;;;4952315;28;20039;-64
2021/07/25 08:04:25;;;;;;;4.28;3.35;;;21.30;82.90;;;;;;4955867;28;20027;-65
2021/07/25 08:06:50;;;;;;;4.50;3.92;;;21.30;82.40;;;;;;4956141;28;20057;-65
2021/07/25 08:09:16;;;;;;;3.22;2.92;;;21.40;81.60;;;;;;4951203;28;20054;-66
2021/07/25 08:11:45;;;;;;;4.68;3.35;;;21.50;81.50;;;;;;4958396;28;20062;-65
2021/07/25 08:14:16;;;;;;;4.53;3.40;;;21.50;81.20;;;;;;4951490;28;20043;-65
2021/07/25 08:16:42;;;;;;;3.60;3.30;;;21.60;80.90;;;;;;4953263;28;20042;-65
2021/07/25 08:19:09;;;;;;;4.75;3.53;;;21.70;81.60;;;;;;4952160;28;20054;-65
2021/07/25 08:21:35;;;;;;;4.75;3.78;;;21.70;80.60;;;;;;4954611;28;20514;-65
2021/07/25 08:24:01;;;;;;;5.47;4.10;;;21.80;80.30;;;;;;4953199;28;20150;-65
2021/07/25 08:26:27;;;;;;;5.57;3.67;;;21.90;79.60;;;;;;4954140;28;20092;-65
2021/07/25 08:28:53;;;;;;;6.57;3.72;;;21.90;80.80;;;;;;4955438;28;20043;-65
2021/07/25 08:31:18;;;;;;;6.20;3.88;;;21.90;80.10;;;;;;4963214;28;20105;-65
2021/07/25 08:33:44;;;;;;;5.25;3.45;;;22.00;79.30;;;;;;4965318;28;20053;-65
2021/07/25 08:36:10;;;;;;;6.10;3.80;;;22.10;78.70;;;;;;4967205;28;20031;-65
2021/07/25 08:38:36;;;;;;;5.13;3.80;;;22.10;78.80;;;;;;4962738;28;20525;-65
2021/07/25 08:41:16;;;;;;;3.97;3.58;;;22.20;78.70;;;;;;4965671;28;20421;-65
2021/07/25 08:43:46;;;;;;;4.95;3.40;;;22.20;77.40;;;;;;4964712;28;20722;-65
2021/07/25 08:46:20;;;;;;;4.40;3.63;;;22.20;77.60;;;;;;4966291;28;20450;-65
2021/07/25 08:48:52;;;;;;;3.85;3.53;;;22.20;77.80;;;;;;4963106;28;20043;-65
2021/07/25 08:51:22;;;;;;;3.90;3.47;;;22.20;77.50;;;;;;4964711;28;20043;-65
2021/07/25 08:54:03;;;;;;;5.28;3.38;;;22.20;77.80;;;;;;4964190;28;20137;-65
2021/07/25 08:56:31;;;;;;;3.72;3.30;;;22.20;78.40;;;;;;4961759;28;20042;-65
2021/07/25 08:59:00;;;;;;;6.25;3.63;;;22.20;79.10;;;;;;4963852;28;25535;-65
2021/07/25 09:01:34;;;;;;;5.85;3.80;;;22.30;78.90;;;;;;4961144;28;20045;-66
2021/07/25 09:04:00;;;;;;;4.55;3.70;;;22.40;78.40;;;;;;4964145;28;20039;-65
2021/07/25 09:06:34;;;;;;;8.18;4.00;;;22.50;78.50;;;;;;4960436;28;20541;-65
2021/07/25 09:09:01;;;;;;;4.72;4.28;;;22.60;77.30;;;;;;4966065;28;20238;-65
2021/07/25 09:11:27;;;;;;;4.68;4.10;;;22.70;77.20;;;;;;4963340;28;20035;-65
2021/07/25 09:13:58;;;;;;;3.70;3.40;;;22.80;76.90;;;;;;4964761;28;20043;-66
2021/07/25 09:16:28;;;;;;;4.63;3.58;;;22.80;77.10;;;;;;4963690;28;20047;-65
2021/07/25 09:18:53;;;;;;;4.03;3.40;;;22.90;77.20;;;;;;4961608;28;20050;-65
2021/07/25 09:21:42;;;;;;;5.80;4.20;;;22.90;77.20;;;;;;4965171;28;20375;-65
2021/07/25 09:24:24;;;;;;;4.03;3.63;;;23.00;75.40;;;;;;4963251;28;20075;-66
2021/07/25 09:26:53;;;;;;;4.15;3.30;;;23.00;75.60;;;;;;4972940;28;20059;-66
2021/07/25 09:29:22;;;;;;;3.83;3.40;;;23.10;76.40;;;;;;4963801;28;20038;-66
2021/07/25 09:31:48;;;;;;;4.03;3.72;;;23.10;76.60;;;;;;4959284;28;20518;-66
2021/07/25 09:34:38;;;;;;;7.03;4.32;;;23.10;76.00;;;;;;4960070;28;20047;-66
2021/07/25 09:37:07;;;;;;;4.82;3.75;;;23.20;73.90;;;;;;4961212;28;20046;-65
2021/07/25 09:39:41;;;;;;;5.57;3.70;;;23.20;75.00;;;;;;4963972;28;20101;-65
2021/07/25 09:42:08;;;;;;;3.83;3.53;;;23.20;75.30;;;;;;4969171;28;20039;-65
2021/07/25 09:44:53;;;;;;;3.67;3.35;;;23.20;75.30;;;;;;4967556;28;20047;-66
2021/07/25 09:47:28;;;;;;;;;;;23.20;75.30;;;;;;4965984;28;20046;-66
2021/07/25 09:49:54;;;;;;;4.50;3.83;;;23.20;74.60;;;;;;4979860;28;19922;-66
2021/07/25 09:52:37;;;;;;;6.18;3.90;;;23.20;75.60;;;;;;4963119;28;20097;-65
2021/07/25 09:55:06;;;;;;;5.18;4.22;;;23.20;74.70;;;;;;4987965;28;20502;-66
2021/07/25 09:57:32;;;;;;;5.15;4.57;;;23.30;75.30;;;;;;4987674;28;20077;-66
2021/07/25 10:00:09;;;;;;;7.18;4.40;;;23.20;75.30;;;;;;4987623;28;20501;-66
2021/07/25 10:02:39;;;;;;;5.22;4.00;;;23.30;74.20;;;;;;4990689;28;20069;-66
2021/07/25 10:05:05;;;;;;;4.38;3.88;;;23.30;73.30;;;;;;4985566;28;20030;-65
2021/07/25 10:07:31;;;;;;;4.10;3.70;;;23.20;73.70;;;;;;4989540;28;20026;-65
2021/07/25 10:10:00;;;;;;;5.15;4.50;;;23.20;74.00;;;;;;4988929;28;20031;-65
2021/07/25 10:12:29;;;;;;;5.50;4.45;;;23.20;74.30;;;;;;4987672;28;20035;-65
2021/07/25 10:15:01;;;;;;;4.65;4.25;;;23.20;74.50;;;;;;4990173;28;20374;-65
2021/07/25 10:17:32;;;;;;;5.43;4.50;;;23.20;74.50;;;;;;4989963;28;20031;-65
2021/07/25 10:19:59;;;;;;;5.72;4.60;;;23.20;74.30;;;;;;4989657;28;20512;-65
2021/07/25 10:22:28;;;;;;;6.45;4.32;;;23.10;74.70;;;;;;4987764;28;20041;-65
2021/07/25 10:25:00;;;;;;;5.15;4.60;;;23.00;75.40;;;;;;4990738;28;20137;-65
2021/07/25 10:27:26;;;;;;;6.22;4.50;;;22.90;74.90;;;;;;4990959;28;20511;-65
2021/07/25 10:29:53;;;;;;;5.22;4.72;;;22.90;75.10;;;;;;4990704;28;20116;-65
2021/07/25 10:32:20;;;;;;;5.10;4.32;;;22.90;75.50;;;;;;4988601;28;20512;-65
2021/07/25 10:34:49;;;;;;;5.18;4.68;;;22.80;74.60;;;;;;4990043;28;20038;-65
2021/07/25 10:37:15;;;;;;;5.88;4.15;;;22.70;74.00;;;;;;4987637;28;20506;-65
2021/07/25 10:39:53;;;;;;;5.30;4.68;;;22.70;74.40;;;;;;4989263;28;20122;-65
2021/07/25 10:42:23;;;;;;;5.22;4.45;;;22.60;74.10;;;;;;5001938;28;20038;-65
2021/07/25 10:44:49;;;;;;;6.25;4.55;;;22.50;74.80;;;;;;4990476;28;20047;-65
2021/07/25 10:47:26;;;;;;;5.38;4.05;;;22.40;75.20;;;;;;4990359;28;20654;-65
2021/07/25 10:50:02;;;;;;;5.82;4.00;;;22.40;75.90;;;;;;4988575;28;20189;-65
2021/07/25 10:52:49;;;;;;;5.20;4.43;;;22.40;75.40;;;;;;4986701;28;20153;-65
2021/07/25 10:55:41;;;;;;;5.53;4.65;;;22.40;76.00;;;;;;4990543;28;20045;-65
2021/07/25 10:58:21;;;;;;;5.20;4.70;;;22.40;76.00;;;;;;4990765;28;20046;-65
2021/07/25 11:00:55;;;;;;;5.10;4.60;;;22.40;75.90;;;;;;4973635;28;20547;-65
2021/07/25 11:03:34;;;;;;;5.47;4.70;;;22.30;76.00;;;;;;4987024;28;20038;-66
2021/07/25 11:06:05;;;;;;;10.68;4.60;;;22.30;77.00;;;;;;4990132;28;20603;-65
2021/07/25 11:08:45;;;;;;;5.30;4.80;;;22.30;76.80;;;;;;4988311;28;20042;-65
2021/07/25 11:11:26;;;;;;;5.13;4.63;;;22.30;76.50;;;;;;4985610;28;20064;-65
2021/07/25 11:13:53;;;;;;;6.38;4.68;;;22.20;77.30;;;;;;4988775;28;20030;-65
2021/07/25 11:16:27;;;;;;;6.90;4.55;;;22.20;77.70;;;;;;4989541;28;20053;-65
2021/07/25 11:18:54;;;;;;;5.53;4.32;;;22.20;77.20;;;;;;4988370;28;20547;-65
2021/07/25 11:21:32;;;;;;;4.53;4.13;;;22.20;77.40;;;;;;4989063;28;20026;-65
2021/07/25 11:23:57;;;;;;;4.32;3.95;;;22.20;77.90;;;;;;4988610;28;20037;-65
2021/07/25 11:26:36;;;;;;;4.80;4.40;;;22.20;77.50;;;;;;4989039;28;20038;-65
2021/07/25 11:29:08;;;;;;;5.50;4.78;;;22.20;78.30;;;;;;4989141;28;20042;-65
2021/07/25 11:31:38;;;;;;;4.72;4.28;;;22.20;79.10;;;;;;4989335;28;20046;-65
2021/07/25 11:34:12;;;;;;;6.55;4.97;;;22.20;78.00;;;;;;4988993;28;20041;-65
2021/07/25 11:36:38;;;;;;;5.53;4.57;;;22.30;77.90;;;;;;4988906;28;20034;-65
2021/07/25 11:39:06;;;;;;;6.03;5.07;;;22.40;77.60;;;;;;4988290;28;20101;-65
2021/07/25 11:41:35;;;;;;;4.53;4.20;;;22.40;77.10;;;;;;4988562;28;20080;-65
2021/07/25 11:44:09;;;;;;;5.70;4.32;;;22.40;77.40;;;;;;4989130;28;20026;-65
2021/07/25 11:46:45;;;;;;;6.83;4.20;;;22.40;76.10;;;;;;4985388;28;20042;-65
2021/07/25 11:49:39;;;;;;;5.45;4.38;;;22.50;76.70;;;;;;4989337;28;20026;-65
2021/07/25 11:52:10;;;;;;;4.40;4.00;;;22.50;77.20;;;;;;4986304;28;20041;-64
2021/07/25 11:54:40;;;;;;;4.95;4.40;;;22.50;76.60;;;;;;4987082;28;20505;-65
2021/07/25 11:57:20;;;;;;;5.40;4.70;;;22.50;76.00;;;;;;4988498;28;20414;-65
2021/07/25 11:59:52;;;;;;;4.72;4.18;;;22.40;76.00;;;;;;4988632;28;20070;-65
2021/07/25 12:02:22;;;;;;;5.13;4.03;;;22.40;76.30;;;;;;4986430;28;20210;-65
2021/07/25 12:04:47;;;;;;;8.90;4.47;;;22.40;76.50;;;;;;4986550;28;20524;-65
2021/07/25 12:07:19;;;;;;;6.07;4.55;;;22.40;76.60;;;;;;4980163;28;20045;-65
2021/07/25 12:09:53;;;;;;;4.88;4.40;;;22.40;77.30;;;;;;5003629;28;20045;-65
2021/07/25 12:12:28;;;;;;;4.68;4.28;;;22.30;77.60;;;;;;4986637;28;20050;-65
2021/07/25 12:14:58;;;;;;;4.55;4.15;;;22.30;77.20;;;;;;4987382;28;20048;-65
2021/07/25 12:17:39;;;;;;;5.30;4.60;;;22.30;76.20;;;;;;4996831;28;20034;-65
2021/07/25 12:20:12;;;;;;;5.07;4.57;;;22.30;76.50;;;;;;4986857;28;20038;-65
2021/07/25 12:23:00;;;;;;;6.07;4.90;;;22.20;76.80;;;;;;4985652;28;20109;-65
2021/07/25 12:25:37;;;;;;;5.40;4.60;;;22.20;76.90;;;;;;4987129;28;20034;-65
2021/07/25 12:28:13;;;;;;;4.75;4.35;;;22.20;76.80;;;;;;4987730;28;20477;-65
2021/07/25 12:30:40;;;;;;;4.93;4.43;;;22.10;77.20;;;;;;4995930;28;20038;-65
2021/07/25 12:33:07;;;;;;;4.63;4.22;;;22.10;78.00;;;;;;4978952;28;20600;-65
2021/07/25 12:35:33;;;;;;;6.30;4.72;;;22.10;77.80;;;;;;4988361;28;20038;-65
2021/07/25 12:38:00;;;;;;;6.03;4.75;;;22.00;77.70;;;;;;4987640;28;20034;-65
2021/07/25 12:40:33;;;;;;;5.43;4.18;;;22.00;77.80;;;;;;4987115;28;20023;-65
2021/07/25 12:42:58;;;;;;;5.45;4.70;;;22.00;78.00;;;;;;4985200;28;20038;-65
2021/07/25 12:45:38;;;;;;;5.57;4.38;;;22.00;78.30;;;;;;4985834;28;20042;-65
2021/07/25 12:48:32;;;;;;;5.95;4.47;;;21.90;79.10;;;;;;4987777;28;20050;-65
2021/07/25 12:53:55;;;;;;;6.05;5.20;;;22.00;78.70;;;;;;4985710;28;20042;-65
2021/07/25 12:56:23;;;;;;;4.95;4.45;;;21.90;78.60;;;;;;4987171;28;20038;-65